Time;durP1;ratioP1;P1;durP2;ratioP2;P2;SDS_P1;SDS_P2;PMS_P1;PMS_P2;Temp;Humidity;BMP_temperature;BMP_pressure;BME280_temperature;BME280_humidity;BME280_pressure;Samples;Min_cycle;Max_cycle;Signal;HPM_P1;HPM_P2
2022/08/17 00:01:19;;;;;;;9.75;8.65;;;;;;;19.91;76.25;100807.48;1548830;90;21587;-87
2022/08/17 00:03:49;;;;;;;9.75;8.78;;;;;;;19.89;76.26;100808.83;1577544;89;21104;-87
2022/08/17 00:06:23;;;;;;;12.78;9.95;;;;;;;19.87;76.33;100803.95;1574667;89;23203;-87
2022/08/17 00:09:04;;;;;;;11.68;9.48;;;;;;;19.87;76.38;100801.75;1569647;89;21041;-87
2022/08/17 00:11:37;;;;;;;10.70;9.55;;;;;;;19.85;76.40;100803.55;1570325;87;21115;-87
2022/08/17 00:14:17;;;;;;;11.70;9.55;;;;;;;19.82;76.45;100805.83;1541628;91;21188;-87
2022/08/17 00:16:48;;;;;;;12.53;10.15;;;;;;;19.79;76.54;100805.85;1542682;91;21064;-87
2022/08/17 00:19:22;;;;;;;12.93;10.35;;;;;;;19.77;76.60;100807.20;1572156;89;21818;-87
2022/08/17 00:21:52;;;;;;;10.38;9.28;;;;;;;19.77;76.66;100812.54;1573231;89;21115;-87
2022/08/17 00:24:19;;;;;;;13.80;10.38;;;;;;;19.67;76.71;100796.17;1568835;89;21789;-87
2022/08/17 00:26:46;;;;;;;15.43;10.48;;;;;;;19.74;76.74;100810.36;1568501;89;21540;-87
2022/08/17 00:29:12;;;;;;;12.65;11.05;;;;;;;19.73;76.80;100815.28;1573824;89;21105;-87
2022/08/17 00:31:42;;;;;;;13.00;10.88;;;;;;;19.70;76.81;100805.92;1573741;89;21710;-86
2022/08/17 00:34:09;;;;;;;11.20;10.00;;;;;;;19.71;76.92;100806.37;1569938;89;21055;-86
2022/08/17 00:36:35;;;;;;;12.80;10.03;;;;;;;19.69;76.91;100802.80;1571195;89;21103;-87
2022/08/17 00:39:03;;;;;;;12.15;10.20;;;;;;;19.68;76.96;100801.05;1572553;89;21029;-87
2022/08/17 00:41:30;;;;;;;12.90;9.93;;;;;;;19.65;77.04;100803.75;1571075;90;21022;-87
2022/08/17 00:44:00;;;;;;;12.65;10.50;;;;;;;19.62;77.08;100810.02;1574119;89;21780;-87
2022/08/17 00:46:31;;;;;;;15.98;10.80;;;;;;;19.63;77.17;100814.44;1573195;89;21063;-87
2022/08/17 00:48:58;;;;;;;12.47;10.43;;;;;;;19.60;77.18;100815.38;1573469;89;21974;-87
2022/08/17 00:51:50;;;;;;;11.90;10.63;;;;;;;19.60;77.19;100813.16;1572954;89;21460;-87
2022/08/17 00:54:32;;;;;;;15.03;10.23;;;;;;;19.57;77.22;100815.39;1572268;89;21096;-86
2022/08/17 00:57:10;;;;;;;11.83;10.20;;;;;;;19.54;77.26;100811.88;1570240;89;21833;-87
2022/08/17 00:59:40;;;;;;;11.68;10.13;;;;;;;19.52;77.33;100819.92;1571850;89;21099;-86
2022/08/17 01:02:08;;;;;;;14.25;10.48;;;;;;;19.53;77.35;100815.00;1570127;91;21013;-86
2022/08/17 01:04:35;;;;;;;13.15;10.25;;;;;;;19.54;77.35;100818.55;1573079;89;21081;-87
2022/08/17 01:07:01;;;;;;;11.88;10.60;;;;;;;19.54;77.36;100818.55;1573913;89;21051;-87
2022/08/17 01:09:28;;;;;;;11.68;10.15;;;;;;;19.56;77.42;100820.32;1574396;89;21789;-86
2022/08/17 01:11:56;;;;;;;10.98;9.95;;;;;;;19.57;77.39;100818.52;1577079;87;21043;-87
2022/08/17 01:14:23;;;;;;;14.20;10.35;;;;;;;19.57;77.39;100819.40;1549131;90;21201;-86
2022/08/17 01:16:53;;;;;;;13.85;10.00;;;;;;;19.57;77.45;100823.41;1560681;90;21065;-86
2022/08/17 01:19:25;;;;;;;11.60;9.98;;;;;;;19.58;77.45;100821.19;1516538;91;21107;-87
2022/08/17 01:22:13;;;;;;;11.20;10.00;;;;;;;19.59;77.49;100818.93;1581033;89;21777;-86
2022/08/17 01:24:44;;;;;;;15.08;11.20;;;;;;;19.60;77.55;100819.38;1569044;89;21082;-86
2022/08/17 01:27:12;;;;;;;11.38;10.23;;;;;;;19.62;77.59;100820.23;1521543;91;21477;-86
2022/08/17 01:29:41;;;;;;;12.20;10.00;;;;;;;19.65;77.63;100818.44;1517839;91;21048;-86
2022/08/17 01:32:07;;;;;;;12.18;10.15;;;;;;;19.66;77.64;100819.77;1509718;91;21059;-86
2022/08/17 01:34:34;;;;;;;12.30;10.95;;;;;;;19.52;77.60;100791.89;1565734;90;21817;-86
2022/08/17 01:37:04;;;;;;;11.50;10.30;;;;;;;19.66;77.61;100817.09;1564914;91;21026;-87
2022/08/17 01:39:44;;;;;;;14.15;9.75;;;;;;;19.66;77.60;100817.09;1573030;90;21477;-88
2022/08/17 01:42:25;;;;;;;12.35;10.28;;;;;;;19.69;77.59;100817.49;1571838;89;21492;-87
2022/08/17 01:44:55;;;;;;;11.25;10.05;;;;;;;19.71;77.54;100821.06;1572122;89;21087;-86
2022/08/17 01:47:22;;;;;;;14.03;10.05;;;;;;;19.72;77.50;100822.39;1572215;91;21762;-87
2022/08/17 01:49:49;;;;;;;12.47;9.98;;;;;;;19.75;77.50;100825.03;1569167;89;21038;-88
2022/08/17 01:52:20;;;;;;;11.57;9.35;;;;;;;19.79;77.46;100825.42;1566297;91;21570;-87
2022/08/17 01:54:47;;;;;;;10.50;9.40;;;;;;;19.81;77.45;100818.27;1573763;91;21078;-87
2022/08/17 01:57:14;;;;;;;13.25;11.00;;;;;;;19.83;77.39;100812.91;1574202;89;21058;-86
2022/08/17 01:59:41;;;;;;;13.10;10.72;;;;;;;19.86;77.43;100810.64;1538235;91;21748;-87
2022/08/17 02:02:07;;;;;;;11.70;9.45;;;;;;;19.88;77.43;100812.87;1546201;90;21464;-86
2022/08/17 02:04:34;;;;;;;10.68;9.65;;;;;;;19.91;77.43;100816.37;1514108;92;21022;-86
2022/08/17 02:07:01;;;;;;;11.70;10.05;;;;;;;19.91;77.31;100824.38;1535347;93;21028;-87
2022/08/17 02:09:28;;;;;;;11.28;10.15;;;;;;;19.91;77.29;100814.16;1543765;90;21064;-87
2022/08/17 02:11:55;;;;;;;11.30;9.70;;;;;;;19.91;77.30;100808.35;1554783;89;22004;-87
2022/08/17 02:14:25;;;;;;;11.57;9.75;;;;;;;19.93;77.28;100812.34;1569206;89;21630;-86
2022/08/17 02:16:52;;;;;;;12.53;9.63;;;;;;;19.91;77.20;100820.37;1572681;89;21491;-86
2022/08/17 02:19:19;;;;;;;11.90;10.03;;;;;;;19.92;77.19;100821.28;1559923;89;21031;-86
2022/08/17 02:21:48;;;;;;;11.63;9.70;;;;;;;19.89;77.09;100819.97;1565604;89;21073;-86
2022/08/17 02:24:22;;;;;;;10.00;9.05;;;;;;;19.86;77.04;100814.23;1534262;91;21726;-86
2022/08/17 02:26:49;;;;;;;13.95;9.33;;;;;;;19.83;77.04;100814.25;1573757;88;21011;-86
2022/08/17 02:29:16;;;;;;;10.05;9.03;;;;;;;19.81;77.02;100818.73;1573517;89;21070;-86
2022/08/17 02:31:43;;;;;;;11.15;10.05;;;;;;;19.78;77.02;100810.74;1573422;89;21323;-86
2022/08/17 02:34:31;;;;;;;11.20;9.45;;;;;;;19.75;77.07;100799.66;1572787;89;21033;-86
2022/08/17 02:37:00;;;;;;;11.95;9.15;;;;;;;19.75;77.04;100802.33;1568673;89;21019;-86
2022/08/17 02:39:27;;;;;;;14.87;10.43;;;;;;;19.71;77.00;100805.04;1557418;89;21086;-87
2022/08/17 02:42:01;;;;;;;15.00;9.95;;;;;;;19.68;76.99;100807.27;1573395;89;21365;-86
2022/08/17 02:44:29;;;;;;;11.43;10.03;;;;;;;19.64;77.02;100813.55;1573196;89;21023;-86
2022/08/17 02:46:55;;;;;;;13.20;9.93;;;;;;;19.58;77.04;100806.50;1573922;89;21053;-86
2022/08/17 02:49:22;;;;;;;13.62;10.08;;;;;;;19.54;77.11;100806.53;1572919;89;22947;-86
2022/08/17 02:51:49;;;;;;;11.18;9.18;;;;;;;19.53;77.20;100803.45;1573325;89;21050;-86
2022/08/17 02:54:16;;;;;;;10.65;9.55;;;;;;;19.50;77.16;100803.47;1574890;89;21050;-86
2022/08/17 02:56:42;;;;;;;11.80;10.08;;;;;;;19.45;77.27;100803.53;1574211;89;21050;-86
2022/08/17 02:59:09;;;;;;;12.10;9.55;;;;;;;19.41;77.31;100803.14;1571763;89;21079;-85
2022/08/17 03:01:36;;;;;;;10.48;9.48;;;;;;;19.37;77.37;100802.28;1572942;89;21760;-86
2022/08/17 03:04:03;;;;;;;12.95;9.53;;;;;;;19.32;77.39;100805.44;1573140;89;21153;-86
2022/08/17 03:06:30;;;;;;;11.65;9.73;;;;;;;19.30;77.49;100809.03;1573896;89;20958;-86
2022/08/17 03:08:57;;;;;;;10.70;9.70;;;;;;;19.27;77.51;100811.73;1573372;89;21038;-86
2022/08/17 03:11:24;;;;;;;14.60;9.35;;;;;;;19.24;77.56;100809.98;1564646;88;21053;-86
2022/08/17 03:13:50;;;;;;;11.63;9.60;;;;;;;19.21;77.60;100818.01;1580578;88;22663;-86
2022/08/17 03:16:17;;;;;;;11.60;10.05;;;;;;;19.18;77.63;100820.69;1528742;92;21057;-86
2022/08/17 03:18:43;;;;;;;10.82;9.28;;;;;;;19.14;77.69;100817.16;1571484;89;21050;-85
2022/08/17 03:21:10;;;;;;;12.07;9.55;;;;;;;19.12;77.71;100815.42;1558745;91;21039;-86
2022/08/17 03:23:40;;;;;;;12.43;9.65;;;;;;;19.12;77.79;100810.96;1551139;90;21942;-86
2022/08/17 03:26:06;;;;;;;15.15;10.85;;;;;;;19.11;77.80;100811.88;1513257;94;21845;-86
2022/08/17 03:28:33;;;;;;;12.00;9.98;;;;;;;19.11;77.86;100814.55;1524671;91;21553;-86
2022/08/17 03:31:00;;;;;;;11.48;9.80;;;;;;;19.12;77.88;100816.76;1523807;91;21082;-86
2022/08/17 03:33:26;;;;;;;11.35;10.15;;;;;;;19.08;77.87;100807.89;1574466;88;21054;-86
2022/08/17 03:35:53;;;;;;;10.75;9.43;;;;;;;19.09;77.84;100812.77;1568797;89;21497;-86
2022/08/17 03:38:20;;;;;;;12.28;9.85;;;;;;;19.09;77.85;100814.11;1572819;89;22584;-86
2022/08/17 03:40:47;;;;;;;11.12;10.03;;;;;;;19.08;77.85;100819.02;1570957;90;21073;-86
2022/08/17 03:43:14;;;;;;;10.90;9.50;;;;;;;19.09;77.86;100824.35;1552178;89;21087;-86
2022/08/17 03:56:51;;;;;;;14.93;9.73;;;;;;;19.45;78.20;100825.34;1574800;90;21065;-85
2022/08/17 03:59:20;;;;;;;12.60;9.20;;;;;;;19.53;77.73;100831.02;1571881;89;21062;-87
2022/08/17 04:01:50;;;;;;;11.68;9.28;;;;;;;19.54;77.53;100829.23;1551721;90;21057;-86
2022/08/17 04:04:17;;;;;;;10.32;9.03;;;;;;;19.60;77.72;100826.05;1574349;88;22609;-87
2022/08/17 04:06:43;;;;;;;10.60;9.50;;;;;;;19.84;77.90;100835.16;1567446;90;21046;-86
2022/08/17 04:09:10;;;;;;;12.45;11.10;;;;;;;19.95;77.34;100827.90;1575556;88;21439;-86
2022/08/17 04:11:37;;;;;;;13.28;9.88;;;;;;;20.00;77.17;100828.27;1537303;90;21076;-86
2022/08/17 04:14:07;;;;;;;10.88;9.43;;;;;;;20.22;77.29;100833.81;1526363;92;21552;-86
2022/08/17 04:16:37;;;;;;;13.05;10.08;;;;;;;20.36;76.84;100828.72;1522449;92;21965;-85
2022/08/17 04:19:02;;;;;;;12.75;9.53;;;;;;;20.35;76.26;100838.96;1537288;90;21053;-84
2022/08/17 04:21:29;;;;;;;11.65;9.20;;;;;;;20.35;76.15;100836.75;1527850;91;21021;-85
2022/08/17 04:24:01;;;;;;;10.58;9.48;;;;;;;20.31;75.94;100836.33;1520787;92;21038;-86
2022/08/17 04:26:28;;;;;;;11.40;9.40;;;;;;;20.28;75.91;100835.94;1542240;91;21048;-86
2022/08/17 04:28:57;;;;;;;11.00;9.85;;;;;;;20.29;75.92;100836.38;1523957;92;21125;-84
2022/08/17 04:31:28;;;;;;;11.22;9.53;;;;;;;20.35;75.96;100833.61;1525998;92;21071;-85
2022/08/17 04:33:55;;;;;;;10.72;9.63;;;;;;;20.40;75.90;100842.89;1519331;92;21060;-85
2022/08/17 04:36:22;;;;;;;11.35;10.18;;;;;;;20.44;75.72;100842.40;1568535;89;21496;-84
2022/08/17 04:38:49;;;;;;;11.33;9.43;;;;;;;20.49;75.67;100844.56;1530934;91;21131;-84
2022/08/17 04:43:54;;;;;;;13.40;10.13;;;;;;;20.59;75.45;100822.14;1542151;90;21132;-83
2022/08/17 04:46:31;;;;;;;13.35;11.00;;;;;;;20.59;75.45;100822.14;1504855;93;21056;-83
2022/08/17 04:48:59;;;;;;;14.63;10.55;;;;;;;21.50;76.26;100842.95;1540325;91;21052;-83
2022/08/17 04:51:39;;;;;;;16.80;9.30;;;;;;;21.50;76.26;100842.95;1573455;89;21082;-83
2022/08/17 04:54:13;;;;;;;10.63;8.60;;;;;;;22.50;76.59;100849.41;1573826;89;21747;-83
2022/08/17 04:56:39;;;;;;;11.63;9.13;;;;;;;24.00;75.99;100843.33;1581197;89;21093;-88
2022/08/17 04:59:10;;;;;;;8.73;7.65;;;;;;;25.40;73.97;100851.03;1573489;90;21042;-87
2022/08/17 05:01:39;;;;;;;8.60;7.87;;;;;;;26.55;72.38;100848.56;1571775;89;21046;-92
2022/08/17 05:04:12;;;;;;;9.85;8.40;;;;;;;27.62;70.15;100852.27;1576256;89;21086;-94
2022/08/17 05:06:51;;;;;;;8.68;7.78;;;;;;;28.48;68.21;100852.39;1575976;89;22631;-90
2022/08/17 05:09:17;;;;;;;8.20;7.37;;;;;;;29.29;66.56;100854.28;1573835;89;21026;-90
2022/08/17 05:11:47;;;;;;;9.23;7.53;;;;;;;29.96;64.76;100844.92;1573206;88;21062;-89
2022/08/17 05:14:13;;;;;;;8.80;7.70;;;;;;;30.06;62.17;100843.93;1551316;90;21619;-89
2022/08/17 05:16:40;;;;;;;10.03;7.20;;;;;;;29.18;60.12;100853.47;1571504;89;21531;-90
2022/08/17 05:19:20;;;;;;;9.70;7.05;;;;;;;28.13;60.07;100856.77;1573372;89;21839;-89
2022/08/17 05:21:46;;;;;;;8.55;7.65;;;;;;;27.30;60.42;100862.67;1573338;89;22188;-89
2022/08/17 05:24:15;;;;;;;8.60;7.80;;;;;;;26.62;60.72;100861.88;1577744;89;21577;-89
2022/08/17 05:26:45;;;;;;;8.75;7.75;;;;;;;26.10;61.16;100862.03;1574022;89;21031;-87
2022/08/17 05:29:12;;;;;;;8.65;7.75;;;;;;;25.71;61.49;100863.41;1573895;91;21035;-90
2022/08/17 05:31:39;;;;;;;11.10;7.53;;;;;;;25.31;61.67;100870.22;1574293;89;22438;-92
2022/08/17 05:34:12;;;;;;;8.98;8.05;;;;;;;24.99;62.11;100868.11;1565142;91;21520;-89
2022/08/17 05:36:39;;;;;;;10.25;8.20;;;;;;;24.79;62.45;100871.91;1570071;90;21050;-90
2022/08/17 05:39:06;;;;;;;9.58;8.08;;;;;;;24.59;62.80;100869.41;1553285;91;21091;-90
2022/08/17 05:41:32;;;;;;;14.60;7.62;;;;;;;24.48;62.88;100874.67;1562688;89;21054;-90
2022/08/17 05:44:01;;;;;;;10.78;7.80;;;;;;;24.31;63.18;100873.84;1556817;89;21984;-90
2022/08/17 05:46:31;;;;;;;9.00;8.03;;;;;;;24.21;63.29;100867.39;1564666;89;21050;-90
2022/08/17 05:49:02;;;;;;;12.15;7.72;;;;;;;24.08;63.46;100875.38;1569137;89;21070;-90
2022/08/17 05:52:03;;;;;;;13.62;8.03;;;;;;;23.98;63.67;100872.55;1550452;89;21606;-90
2022/08/17 05:54:38;;;;;;;13.18;8.30;;;;;;;23.92;64.01;100872.26;1573064;91;21816;-90
2022/08/17 05:57:24;;;;;;;11.68;8.30;;;;;;;23.82;64.03;100872.98;1565993;89;21760;-89
2022/08/17 06:00:17;;;;;;;9.65;7.33;;;;;;;23.76;64.24;100871.80;1557122;91;21069;-90
2022/08/17 06:03:08;;;;;;;13.70;8.67;;;;;;;23.72;64.48;100875.46;1558214;90;21066;-90
2022/08/17 06:06:03;;;;;;;11.43;9.25;;;;;;;23.67;64.57;100872.05;1564948;90;21051;-90
2022/08/17 06:09:16;;;;;;;9.50;8.45;;;;;;;23.66;64.69;100876.98;1558382;91;21540;-91
2022/08/17 06:12:18;;;;;;;13.22;9.90;;;;;;;23.63;64.80;100877.05;1575671;88;21859;-91
2022/08/17 06:15:14;;;;;;;11.15;8.88;;;;;;;23.67;65.03;100878.77;1575742;88;21025;-90
2022/08/17 06:17:43;;;;;;;10.13;8.80;;;;;;;23.74;65.09;100882.14;1584995;87;21029;-90
2022/08/17 06:20:15;;;;;;;13.10;9.40;;;;;;;23.81;65.20;100884.65;1596787;87;21588;-90
2022/08/17 06:22:52;;;;;;;15.00;9.13;;;;;;;23.88;65.21;100888.53;1579776;88;21266;-90
2022/08/17 06:25:34;;;;;;;11.15;8.85;;;;;;;23.98;65.34;100889.55;1585364;86;21781;-91
2022/08/17 06:28:08;;;;;;;12.43;10.70;;;;;;;24.10;65.27;100891.03;1552556;88;21681;-90
2022/08/17 06:30:56;;;;;;;11.90;8.50;;;;;;;24.23;65.25;100895.56;1573845;89;21569;-90
2022/08/17 06:33:36;;;;;;;12.43;11.10;;;;;;;24.41;65.18;100903.56;1573304;89;22019;-89
2022/08/17 06:36:17;;;;;;;15.72;9.73;;;;;;;24.59;65.10;100900.35;1533296;91;21117;-89
2022/08/17 06:39:12;;;;;;;13.78;9.10;;;;;;;24.69;64.82;100902.76;1570221;89;21755;-90
2022/08/17 06:42:20;;;;;;;15.28;10.15;;;;;;;24.69;64.77;100905.45;1546542;92;21017;-91
2022/08/17 06:45:10;;;;;;;14.55;9.55;;;;;;;24.60;64.69;100903.44;1567624;89;21030;-89
2022/08/17 06:47:54;;;;;;;14.07;8.50;;;;;;;24.57;64.77;100909.38;1536246;91;21067;-90
2022/08/17 06:50:45;;;;;;;14.07;8.53;;;;;;;24.53;64.73;100907.72;1567860;89;21055;-89
2022/08/17 06:53:48;;;;;;;11.45;8.53;;;;;;;24.44;64.97;100902.14;1553310;89;21577;-92
2022/08/17 06:56:19;;;;;;;16.62;8.33;;;;;;;24.47;65.17;100901.15;1543397;89;21034;-88
2022/08/17 06:58:47;;;;;;;12.68;8.53;;;;;;;24.47;65.19;100897.11;1565255;89;21079;-89
2022/08/17 07:01:18;;;;;;;8.85;7.92;;;;;;;24.51;65.09;100900.12;1564858;89;21047;-89
2022/08/17 07:03:55;;;;;;;14.05;7.80;;;;;;;24.47;65.23;100896.64;1569004;89;21069;-90
2022/08/17 07:06:27;;;;;;;12.47;8.00;;;;;;;24.55;65.32;100898.69;1553069;90;21715;-89
2022/08/17 07:09:30;;;;;;;11.30;7.10;;;;;;;24.64;65.35;100900.19;1566050;89;21534;-90
2022/08/17 07:12:22;;;;;;;7.37;6.20;;;;;;;24.73;65.10;100898.56;1546462;90;21028;-88
2022/08/17 07:15:03;;;;;;;13.25;7.65;;;;;;;24.88;65.10;100899.89;1543173;90;21056;-89
2022/08/17 07:17:46;;;;;;;8.37;7.37;;;;;;;24.95;64.76;100905.50;1533131;90;21519;-89
2022/08/17 07:20:19;;;;;;;9.90;7.45;;;;;;;25.04;64.71;100896.25;1546108;90;21041;-89
2022/08/17 07:23:17;;;;;;;9.90;7.00;;;;;;;25.19;64.64;100898.42;1542239;91;21068;-89
2022/08/17 07:25:43;;;;;;;10.55;6.87;;;;;;;25.25;64.14;100896.02;1523016;92;21059;-89
2022/08/17 07:28:15;;;;;;;7.33;5.75;;;;;;;25.36;63.91;100894.33;1540516;90;21061;-88
2022/08/17 07:30:48;;;;;;;8.45;6.75;;;;;;;25.49;63.46;100902.39;1574428;89;21045;-88
2022/08/17 07:33:25;;;;;;;7.37;5.87;;;;;;;25.55;62.98;100908.04;1546716;90;21753;-88
2022/08/17 07:35:53;;;;;;;10.20;5.87;;;;;;;25.61;62.78;100911.86;1538100;90;21220;-89
2022/08/17 07:38:34;;;;;;;7.10;6.03;;;;;;;25.67;62.74;100902.67;1573055;89;21014;-89
2022/08/17 07:41:06;;;;;;;5.90;5.28;;;;;;;25.78;62.57;100899.13;1572806;89;21647;-88
2022/08/17 07:43:49;;;;;;;6.12;5.55;;;;;;;25.89;62.26;100905.49;1574972;88;21090;-91
2022/08/17 07:49:36;;;;;;;7.22;6.53;;;;;;;26.03;61.87;100901.83;1572340;88;21449;-90
2022/08/17 07:52:13;;;;;;;6.22;5.47;;;;;;;26.09;61.41;100901.63;1575263;88;21575;-89
2022/08/17 07:54:47;;;;;;;7.35;6.60;;;;;;;26.12;60.65;100907.37;1540085;90;21040;-89
2022/08/17 07:57:30;;;;;;;10.03;9.03;;;;;;;26.08;60.22;100907.08;1542789;90;21052;-90
2022/08/17 08:00:18;;;;;;;9.70;8.65;;;;;;;26.05;59.80;100901.30;1540448;90;21843;-90
2022/08/17 08:03:32;;;;;;;7.25;6.22;;;;;;;26.08;59.80;100906.59;1509100;90;49499;-90
2022/08/17 08:06:02;;;;;;;8.03;5.55;;;;;;;26.08;59.35;100907.95;1547443;90;21140;-89
2022/08/17 08:08:41;;;;;;;8.00;5.70;;;;;;;26.08;59.22;100902.55;1534655;91;21122;-90
2022/08/17 08:11:14;;;;;;;7.75;5.35;;;;;;;26.12;59.11;100900.63;1524308;91;21537;-89
2022/08/17 08:13:43;;;;;;;13.30;5.17;;;;;;;26.15;58.84;100893.30;1532963;91;22018;-90
2022/08/17 08:16:27;;;;;;;5.30;4.80;;;;;;;26.19;58.92;100898.11;1532367;91;21063;-90
2022/08/17 08:18:58;;;;;;;6.05;4.50;;;;;;;26.28;58.18;100910.39;1532765;91;21603;-89
2022/08/17 08:22:02;;;;;;;6.60;5.50;;;;;;;26.27;57.69;100918.05;1501250;93;21559;-89
2022/08/17 08:25:08;;;;;;;5.47;4.93;;;;;;;26.29;57.83;100911.66;1475139;94;21053;-90
2022/08/17 08:27:45;;;;;;;6.33;4.72;;;;;;;26.37;57.66;100914.05;1517172;91;21551;-90
2022/08/17 08:30:17;;;;;;;11.10;6.20;;;;;;;26.48;57.54;100920.39;1507676;92;21443;-90
2022/08/17 08:33:21;;;;;;;9.60;5.72;;;;;;;26.50;57.55;100922.13;1526759;92;21504;-89
2022/08/17 08:36:02;;;;;;;7.25;5.40;;;;;;;26.53;57.45;100927.38;1535546;91;21060;-89
2022/08/17 08:38:47;;;;;;;9.33;6.03;;;;;;;26.54;57.50;100932.30;1544721;91;21101;-89
2022/08/17 08:41:41;;;;;;;7.42;5.45;;;;;;;26.51;57.40;100929.73;1534487;92;21782;-90
2022/08/17 08:44:34;;;;;;;7.37;6.30;;;;;;;26.43;57.42;100932.73;1558793;90;21057;-90
2022/08/17 08:47:36;;;;;;;10.72;7.28;;;;;;;26.34;57.58;100931.25;1557482;90;21483;-90
2022/08/17 08:50:43;;;;;;;;;;;;;;;;;;;;;
2022/08/17 08:53:54;;;;;;;10.63;6.40;;;;;;;26.30;57.84;100936.36;1553013;90;21070;-89
2022/08/17 08:56:29;;;;;;;9.83;6.47;;;;;;;26.23;58.06;100929.43;1559124;90;21069;-89
2022/08/17 08:59:31;;;;;;;13.18;7.10;;;;;;;26.20;57.99;100928.19;1563050;90;21101;-89
2022/08/17 09:02:38;;;;;;;11.20;6.87;;;;;;;26.13;57.91;100942.39;1559749;90;21062;-89
2022/08/17 09:05:38;;;;;;;8.18;6.20;;;;;;;26.05;57.90;100932.33;1557763;89;21131;-90
2022/08/17 09:08:26;;;;;;;10.18;7.17;;;;;;;26.02;58.10;100931.59;1553861;89;21051;-90
2022/08/17 09:11:07;;;;;;;7.08;6.37;;;;;;;26.00;58.17;100927.59;1560797;90;21824;-90
2022/08/17 09:14:12;;;;;;;12.00;7.10;;;;;;;26.03;58.44;100930.63;1551300;89;21083;-90
2022/08/17 09:17:30;;;;;;;;;;;;;;;;;;;;;
2022/08/17 09:20:24;;;;;;;8.73;7.42;;;;;;;26.15;58.48;100941.86;1538201;90;21128;-90
2022/08/17 09:22:54;;;;;;;9.53;7.22;;;;;;;26.18;58.48;100951.20;1564205;90;21472;-90
2022/08/17 09:25:31;;;;;;;10.53;6.25;;;;;;;26.21;58.25;100944.80;1562340;91;21735;-90
2022/08/17 09:28:02;;;;;;;15.10;8.20;;;;;;;26.17;58.37;100945.86;1559497;89;21082;-90
2022/08/17 09:30:50;;;;;;;8.73;6.95;;;;;;;26.26;58.61;100944.61;1561319;89;21050;-90
2022/08/17 09:33:24;;;;;;;9.43;6.97;;;;;;;26.34;58.51;100950.14;1561665;91;21468;-90
2022/08/17 09:36:03;;;;;;;7.83;7.12;;;;;;;26.37;58.48;100942.39;1559351;90;21082;-90
2022/08/17 09:38:53;;;;;;;8.93;7.87;;;;;;;26.45;58.30;100939.43;1563128;91;21770;-90
2022/08/17 09:41:46;;;;;;;9.65;8.05;;;;;;;26.52;58.28;100949.03;1556981;91;21090;-90
2022/08/17 09:44:39;;;;;;;11.25;7.80;;;;;;;26.57;58.26;100940.29;1569925;89;21046;-90
2022/08/17 09:47:20;;;;;;;7.97;7.17;;;;;;;26.62;58.29;100938.81;1563802;91;21066;-90
2022/08/17 09:49:59;;;;;;;9.00;7.37;;;;;;;26.66;58.13;100936.40;1568776;90;21110;-90
2022/08/17 09:52:28;;;;;;;8.80;7.37;;;;;;;26.61;57.85;100946.01;1555070;89;22646;-90
2022/08/17 09:54:58;;;;;;;9.88;8.88;;;;;;;26.57;58.01;100950.61;1556862;91;21062;-90
2022/08/17 09:57:30;;;;;;;9.33;7.20;;;;;;;26.54;57.93;100939.05;1564403;91;21565;-90
2022/08/17 10:00:25;;;;;;;8.90;7.17;;;;;;;26.56;58.13;100939.42;1565230;91;21054;-90
2022/08/17 10:03:21;;;;;;;8.13;7.28;;;;;;;26.63;57.83;100951.36;1553734;90;21425;-90
2022/08/17 10:06:05;;;;;;;9.90;6.75;;;;;;;26.67;57.77;100935.44;1561640;90;21702;-90
2022/08/17 10:09:06;;;;;;;8.80;7.20;;;;;;;26.62;57.40;100942.38;1557321;91;21078;-90
2022/08/17 10:14:32;;;;;;;9.85;7.42;;;;;;;26.63;57.81;100955.41;1556524;89;21066;-90
2022/08/17 10:17:19;;;;;;;10.78;8.50;;;;;;;26.63;57.60;100940.08;1571236;89;20947;-90
2022/08/17 10:20:25;;;;;;;14.95;12.88;;;;;;;26.62;57.71;100948.27;1572361;90;21611;-90
2022/08/17 10:26:17;;;;;;;8.10;7.17;;;;;;;26.63;57.74;100949.53;1556613;89;21453;-90
2022/08/17 10:29:15;;;;;;;11.85;8.23;;;;;;;26.67;57.63;100948.94;1506839;93;21100;-90
2022/08/17 10:31:45;;;;;;;11.08;9.13;;;;;;;26.73;57.26;100948.25;1507595;93;21065;-90
2022/08/17 10:34:46;;;;;;;13.45;9.43;;;;;;;26.74;57.44;100948.64;1507362;93;21823;-90
2022/08/17 10:37:40;;;;;;;9.08;7.72;;;;;;;26.78;57.41;100949.88;1507505;92;21072;-90
2022/08/17 10:40:39;;;;;;;8.88;7.72;;;;;;;26.74;57.07;100956.73;1507500;93;21072;-90
2022/08/17 10:43:43;;;;;;;10.98;7.20;;;;;;;26.72;56.87;100968.55;1494065;93;21062;-90
2022/08/17 10:46:19;;;;;;;12.13;7.67;;;;;;;26.68;57.27;100957.47;1492410;94;21086;-90
2022/08/17 10:48:46;;;;;;;12.45;8.20;;;;;;;26.73;57.42;100943.33;1507342;93;22438;-90
2022/08/17 10:51:36;;;;;;;9.38;8.10;;;;;;;26.77;57.39;100949.01;1466323;96;21100;-90
2022/08/17 10:54:07;;;;;;;9.95;8.03;;;;;;;26.81;57.50;100950.64;1500480;93;21064;-90
2022/08/17 10:56:45;;;;;;;11.03;7.72;;;;;;;26.84;57.35;100949.63;1478106;93;21146;-90
2022/08/17 10:59:36;;;;;;;12.43;7.80;;;;;;;26.89;57.40;100940.88;1507105;93;21540;-90
2022/08/17 11:02:25;;;;;;;12.70;7.72;;;;;;;26.93;57.25;100943.41;1507399;93;22861;-90
2022/08/17 11:05:28;;;;;;;9.95;8.08;;;;;;;26.92;57.28;100952.45;1510588;91;21665;-90
2022/08/17 11:08:06;;;;;;;9.98;7.75;;;;;;;26.85;57.28;100956.33;1564876;89;28765;-90
2022/08/17 11:10:56;;;;;;;11.30;7.97;;;;;;;26.84;57.53;100949.18;1565146;89;21114;-91
2022/08/17 11:13:52;;;;;;;11.45;8.33;;;;;;;26.83;57.65;100946.05;1572820;88;21487;-91
2022/08/17 11:16:34;;;;;;;11.85;8.05;;;;;;;26.91;57.44;100948.45;1582811;88;21853;-91
2022/08/17 11:19:09;;;;;;;10.08;8.15;;;;;;;26.96;57.01;100943.75;1581821;88;21043;-91
2022/08/17 11:21:53;;;;;;;10.18;7.70;;;;;;;26.94;57.20;100972.65;1573648;91;21073;-90
2022/08/17 11:24:34;;;;;;;10.03;8.40;;;;;;;26.91;56.89;100952.50;1550913;89;21476;-91
2022/08/17 11:27:29;;;;;;;9.38;7.87;;;;;;;26.89;57.03;100948.98;1568237;89;21085;-91
2022/08/17 11:30:07;;;;;;;9.80;8.40;;;;;;;26.91;57.14;100955.20;1576126;89;22543;-91
2022/08/17 11:32:49;;;;;;;9.00;7.60;;;;;;;26.93;56.84;100960.07;1571757;89;21065;-91
2022/08/17 11:35:37;;;;;;;10.25;7.72;;;;;;;26.94;56.68;100963.20;1572287;89;21047;-91
2022/08/17 11:38:30;;;;;;;11.53;6.60;;;;;;;26.97;56.28;100959.00;1548814;89;21050;-91
2022/08/17 11:41:20;;;;;;;8.83;6.40;;;;;;;27.00;55.69;100956.19;1576355;89;21018;-91
2022/08/17 11:44:04;;;;;;;11.90;7.08;;;;;;;27.02;54.98;100952.08;1576227;89;21766;-91
2022/08/17 11:53:07;;;;;;;8.33;7.35;;;;;;;27.11;54.88;100953.06;1513105;91;21153;-91
2022/08/17 11:56:04;;;;;;;;;;;;;;;;;;;;;
2022/08/17 11:58:39;;;;;;;8.75;6.42;;;;;;;27.17;54.78;100939.28;1546756;90;21014;-91
2022/08/17 12:01:35;;;;;;;7.08;5.97;;;;;;;27.23;54.83;100949.83;1580738;89;21058;-90
2022/08/17 12:04:28;;;;;;;11.70;7.97;;;;;;;27.25;53.53;100950.68;1580424;89;21045;-90
2022/08/17 12:07:16;;;;;;;8.93;6.47;;;;;;;27.20;53.96;100958.09;1568348;88;21557;-91
2022/08/17 12:09:45;;;;;;;12.58;7.22;;;;;;;27.20;53.45;100961.23;1556577;89;21435;-91
2022/08/17 12:12:35;;;;;;;7.03;6.28;;;;;;;27.19;53.37;100959.50;1564653;88;21789;-90
2022/08/17 12:15:06;;;;;;;7.80;6.25;;;;;;;27.21;53.63;100961.18;1565112;88;21096;-91
2022/08/17 12:17:37;;;;;;;6.85;6.20;;;;;;;27.22;53.48;100952.14;1576091;89;21546;-91
2022/08/17 12:20:15;;;;;;;9.23;6.60;;;;;;;27.24;52.64;100955.66;1582915;88;21539;-90
2022/08/17 12:23:05;;;;;;;9.08;7.00;;;;;;;27.21;52.62;100954.91;1552139;90;21566;-91
2022/08/17 12:25:40;;;;;;;6.25;5.65;;;;;;;27.21;53.07;100951.72;1560518;88;22422;-90
2022/08/17 12:28:30;;;;;;;6.33;5.67;;;;;;;27.24;52.87;100954.31;1581302;88;21026;-90
2022/08/17 12:31:04;;;;;;;7.05;5.65;;;;;;;27.27;52.30;100953.33;1524746;91;21538;-90
2022/08/17 12:33:31;;;;;;;6.90;5.90;;;;;;;27.26;52.36;100961.91;1581959;88;21021;-91
2022/08/17 12:36:06;;;;;;;7.05;6.25;;;;;;;27.21;52.24;100967.94;1582788;88;21022;-91
2022/08/17 12:38:36;;;;;;;6.00;5.50;;;;;;;27.21;52.13;100964.36;1581344;88;25657;-92